createdAt,value
2023-05-09T00:00:53.252Z,13.4827
2023-05-09T00:02:01.404Z,13.4146
2023-05-09T00:03:09.649Z,13.4589
2023-05-09T00:04:17.689Z,13.5527
2023-05-09T00:05:25.621Z,13.6128
2023-05-09T00:06:33.719Z,13.5358
2023-05-09T00:07:41.758Z,13.4398
2023-05-09T00:08:49.812Z,13.2497
2023-05-09T00:09:57.968Z,13.2869
2023-05-09T00:11:06.000Z,13.3197
2023-05-09T00:12:14.021Z,13.4026
2023-05-09T00:13:22.140Z,13.3803
2023-05-09T00:14:30.049Z,13.3014
2023-05-09T00:15:38.093Z,13.3319
2023-05-09T00:16:46.157Z,13.3061
2023-05-09T00:17:54.434Z,13.3057
2023-05-09T00:19:02.399Z,13.2724
2023-05-09T00:20:10.467Z,13.1631
2023-05-09T00:21:18.519Z,13.1430
2023-05-09T00:22:26.525Z,13.1388
2023-05-09T00:23:34.611Z,13.0860
2023-05-09T00:24:42.717Z,13.1194
2023-05-09T00:25:50.804Z,13.1602
2023-05-09T00:26:58.860Z,13.1892
2023-05-09T00:28:06.827Z,13.1799
2023-05-09T00:29:14.781Z,13.1429
2023-05-09T00:30:22.847Z,13.1030
2023-05-09T00:31:30.937Z,13.0723
2023-05-09T00:32:39.145Z,13.0606
2023-05-09T00:33:47.298Z,13.0545
2023-05-09T00:34:55.356Z,13.0334
2023-05-09T00:36:03.306Z,13.0912
2023-05-09T00:37:11.326Z,13.1255
2023-05-09T00:38:19.630Z,13.0614
2023-05-09T00:39:27.702Z,12.9514
2023-05-09T00:40:35.691Z,12.9041
2023-05-09T00:41:43.574Z,12.8665
2023-05-09T00:42:51.632Z,12.8506
2023-05-09T00:43:59.577Z,12.8402
2023-05-09T00:45:07.656Z,12.7841
2023-05-09T00:46:15.762Z,12.6618
2023-05-09T00:47:23.913Z,12.6326
2023-05-09T00:48:31.954Z,12.6460
2023-05-09T00:49:40.100Z,12.6555
2023-05-09T00:50:48.167Z,12.6519
2023-05-09T00:51:56.109Z,12.6458
2023-05-09T00:53:04.183Z,12.6433
2023-05-09T00:54:12.255Z,12.6443
2023-05-09T00:55:20.330Z,12.6357
2023-05-09T00:56:28.556Z,12.6418
2023-05-09T00:57:36.551Z,12.5443
2023-05-09T00:58:44.338Z,12.5346
2023-05-09T00:59:52.881Z,12.4774
2023-05-09T01:01:00.511Z,12.5075
2023-05-09T01:02:08.702Z,12.4287
2023-05-09T01:03:16.755Z,12.4512
2023-05-09T01:04:24.732Z,12.4095
2023-05-09T01:05:33.049Z,12.4390
2023-05-09T01:06:41.071Z,12.4862
2023-05-09T01:07:48.938Z,12.5502
2023-05-09T01:08:57.100Z,12.5668
2023-05-09T01:10:05.048Z,12.5365
2023-05-09T01:11:13.206Z,12.4713
2023-05-09T01:12:21.205Z,12.4648
2023-05-09T01:13:29.122Z,12.4749
2023-05-09T01:14:37.230Z,12.4272
2023-05-09T01:15:45.284Z,12.4217
2023-05-09T01:16:53.436Z,12.4142
2023-05-09T01:18:01.538Z,12.3572
2023-05-09T01:19:09.540Z,12.3458
2023-05-09T01:20:17.684Z,12.3391
2023-05-09T01:21:25.842Z,12.4381
2023-05-09T01:22:33.805Z,12.4514
2023-05-09T01:23:41.880Z,12.4476
2023-05-09T01:24:49.866Z,12.4768
2023-05-09T01:25:57.967Z,12.4883
2023-05-09T01:27:06.051Z,12.4640
2023-05-09T01:28:14.045Z,12.4749
2023-05-09T01:29:21.950Z,12.4957
2023-05-09T01:30:30.026Z,12.5499
2023-05-09T01:31:38.201Z,12.6054
2023-05-09T01:32:46.368Z,12.6128
2023-05-09T01:33:54.356Z,12.5525
2023-05-09T01:35:02.484Z,12.5010
2023-05-09T01:36:10.471Z,12.4593
2023-05-09T01:37:18.737Z,12.3761
2023-05-09T01:38:26.684Z,12.2897
2023-05-09T01:39:34.655Z,12.2311
2023-05-09T01:40:42.693Z,12.1772
2023-05-09T01:41:50.786Z,12.1325
2023-05-09T01:42:58.902Z,12.0789
2023-05-09T01:44:06.874Z,12.0475
2023-05-09T01:45:15.020Z,12.0147
2023-05-09T01:46:23.037Z,12.0528
2023-05-09T01:47:31.112Z,12.1526
2023-05-09T01:48:39.119Z,12.1831
2023-05-09T01:49:47.264Z,12.0761
2023-05-09T01:50:55.358Z,12.0679
2023-05-09T01:52:03.304Z,12.0280
2023-05-09T01:53:11.554Z,11.9826
2023-05-09T01:54:19.525Z,11.9664
2023-05-09T01:55:27.554Z,11.9445
2023-05-09T01:56:35.654Z,11.9410
2023-05-09T01:57:43.673Z,11.8716
2023-05-09T01:58:51.588Z,11.8485
2023-05-09T01:59:59.641Z,11.8390
2023-05-09T02:01:07.744Z,11.8293
2023-05-09T02:02:16.003Z,11.7871
2023-05-09T02:03:23.922Z,11.7629
2023-05-09T02:04:31.995Z,11.7327
2023-05-09T02:05:40.052Z,11.7375
2023-05-09T02:06:48.186Z,11.6854
2023-05-09T02:07:56.263Z,11.5382
2023-05-09T02:09:04.363Z,11.4806
2023-05-09T02:10:12.344Z,11.4831
2023-05-09T02:11:20.443Z,11.4880
2023-05-09T02:12:28.416Z,11.5138
2023-05-09T02:13:36.369Z,11.5632
2023-05-09T02:14:44.432Z,11.6294
2023-05-09T02:15:52.496Z,11.6721
2023-05-09T02:17:00.853Z,11.7097
2023-05-09T02:18:08.728Z,11.7133
2023-05-09T02:19:16.828Z,11.7350
2023-05-09T02:20:24.866Z,11.6916
2023-05-09T02:21:32.911Z,11.6662
2023-05-09T02:22:41.170Z,11.6315
2023-05-09T02:23:49.037Z,11.5916
2023-05-09T02:24:57.193Z,11.5914
2023-05-09T02:26:05.365Z,11.6240
2023-05-09T02:27:13.304Z,11.6442
2023-05-09T02:28:21.160Z,11.6666
2023-05-09T02:29:29.210Z,11.6687
2023-05-09T02:30:37.284Z,11.6660
2023-05-09T02:31:45.554Z,11.7011
2023-05-09T02:32:53.558Z,11.7341
2023-05-09T02:34:01.589Z,11.7722
2023-05-09T02:35:09.638Z,11.8552
2023-05-09T02:36:17.751Z,11.9004
2023-05-09T02:37:25.854Z,11.9132
2023-05-09T02:38:33.838Z,11.9998
2023-05-09T02:39:41.925Z,12.0675
2023-05-09T02:40:52.150Z,12.0623
2023-05-09T02:42:02.811Z,12.0420
2023-05-09T02:43:10.862Z,12.0709
2023-05-09T02:44:18.864Z,12.0774
2023-05-09T02:45:27.146Z,12.1030
2023-05-09T02:46:35.167Z,12.0925
2023-05-09T02:47:43.293Z,12.0871
2023-05-09T02:48:51.276Z,12.0385
2023-05-09T02:49:59.416Z,12.0124
2023-05-09T02:51:07.384Z,11.9702
2023-05-09T02:52:15.430Z,11.9744
2023-05-09T02:53:23.514Z,11.9426
2023-05-09T02:54:31.543Z,11.8741
2023-05-09T02:55:39.603Z,11.7772
2023-05-09T02:56:47.590Z,11.7169
2023-05-09T02:58:09.395Z,11.7640
2023-05-09T02:59:08.671Z,11.8223
2023-05-09T03:00:16.717Z,11.8640
2023-05-09T03:01:25.055Z,11.9597
2023-05-09T03:02:32.925Z,12.0406
2023-05-09T03:03:41.171Z,12.1312
2023-05-09T03:04:49.152Z,12.2014
2023-05-09T03:05:57.134Z,12.2428
2023-05-09T03:07:05.072Z,12.2659
2023-05-09T03:08:13.259Z,12.2855
2023-05-09T03:09:21.230Z,12.2756
2023-05-09T03:10:29.125Z,12.2895
2023-05-09T03:11:37.201Z,12.3118
2023-05-09T03:12:45.361Z,12.3229
2023-05-09T03:13:53.491Z,12.2264
2023-05-09T03:15:01.497Z,12.2029
2023-05-09T03:16:09.717Z,12.2014
2023-05-09T03:17:17.630Z,12.2062
2023-05-09T03:18:25.720Z,12.2308
2023-05-09T03:19:33.735Z,12.2680
2023-05-09T03:20:41.934Z,12.3011
2023-05-09T03:21:49.880Z,12.2994
2023-05-09T03:22:58.055Z,12.3118
2023-05-09T03:24:05.983Z,12.3267
2023-05-09T03:25:14.092Z,12.2989
2023-05-09T03:26:22.000Z,12.3322
2023-05-09T03:27:30.049Z,12.3856
2023-05-09T03:28:38.203Z,12.4366
2023-05-09T03:29:46.384Z,12.4093
2023-05-09T03:30:54.324Z,12.3622
2023-05-09T03:32:02.437Z,12.4327
2023-05-09T03:33:10.493Z,12.5020
2023-05-09T03:34:18.511Z,12.5666
2023-05-09T03:35:26.759Z,12.6269
2023-05-09T03:36:34.630Z,12.6277
2023-05-09T03:37:42.874Z,12.6546
2023-05-09T03:38:50.790Z,12.7114
2023-05-09T03:39:58.703Z,12.7883
2023-05-09T03:41:06.768Z,12.7847
2023-05-09T03:42:14.835Z,12.7890
2023-05-09T03:43:22.997Z,12.7787
2023-05-09T03:44:31.112Z,12.8026
2023-05-09T03:45:39.200Z,12.7955
2023-05-09T03:46:47.277Z,12.8356
2023-05-09T03:47:55.296Z,12.8478
2023-05-09T03:49:03.326Z,12.8815
2023-05-09T03:50:11.588Z,12.9235
2023-05-09T03:51:19.464Z,12.9706
2023-05-09T03:52:27.553Z,12.9750
2023-05-09T03:53:35.679Z,12.9813
2023-05-09T03:54:43.555Z,12.9855
2023-05-09T03:55:51.617Z,13.0009
2023-05-09T03:56:59.733Z,13.0057
2023-05-09T03:58:07.918Z,13.0126
2023-05-09T03:59:15.966Z,13.0645
2023-05-09T04:00:24.050Z,13.0944
2023-05-09T04:01:32.331Z,13.1326
2023-05-09T04:02:40.261Z,13.1877
2023-05-09T04:03:48.258Z,13.2077
2023-05-09T04:04:56.297Z,13.2319
2023-05-09T04:06:04.321Z,13.2335
2023-05-09T04:07:12.463Z,13.2069
2023-05-09T04:08:20.501Z,13.1961
2023-05-09T04:09:28.347Z,13.1842
2023-05-09T04:10:36.418Z,13.1545
2023-05-09T04:11:44.473Z,13.1249
2023-05-09T04:12:52.750Z,13.1268
2023-05-09T04:14:00.705Z,13.1209
2023-05-09T04:15:08.783Z,13.1474
2023-05-09T04:16:16.870Z,13.1888
2023-05-09T04:17:25.174Z,13.2350
2023-05-09T04:18:33.138Z,13.2550
2023-05-09T04:19:41.019Z,13.2792
2023-05-09T04:20:49.085Z,13.2979
2023-05-09T04:21:57.198Z,13.3418
2023-05-09T04:23:05.213Z,13.4003
2023-05-09T04:24:13.180Z,13.4457
2023-05-09T04:25:21.196Z,13.4970
2023-05-09T04:26:29.247Z,13.5320
2023-05-09T04:27:37.436Z,13.5981
2023-05-09T04:28:45.707Z,13.6416
2023-05-09T04:29:53.559Z,13.6487
2023-05-09T04:31:01.623Z,13.6435
2023-05-09T04:32:09.706Z,13.6760
2023-05-09T04:33:18.122Z,13.5970
2023-05-09T04:34:25.864Z,13.6243
2023-05-09T04:35:33.879Z,13.7330
2023-05-09T04:36:42.002Z,13.7786
2023-05-09T04:37:50.002Z,13.8219
2023-05-09T04:38:57.970Z,13.8152
2023-05-09T04:40:06.030Z,13.8560
2023-05-09T04:41:14.060Z,13.9127
2023-05-09T04:42:22.226Z,13.9197
2023-05-09T04:43:30.292Z,13.7770
2023-05-09T04:44:38.388Z,13.5848
2023-05-09T04:45:46.375Z,13.4419
2023-05-09T04:46:54.472Z,13.4385
2023-05-09T04:48:02.591Z,13.5276
2023-05-09T04:49:10.868Z,13.6803
2023-05-09T04:50:18.656Z,13.7393
2023-05-09T04:51:26.803Z,13.7370
2023-05-09T04:52:34.784Z,13.6689
2023-05-09T04:53:42.704Z,13.6756
2023-05-09T04:54:50.800Z,13.6622
2023-05-09T04:55:58.825Z,13.7564
2023-05-09T04:57:17.321Z,13.7536
2023-05-09T04:58:20.071Z,13.7755
2023-05-09T04:59:28.006Z,13.8221
2023-05-09T05:00:36.103Z,13.7873
2023-05-09T05:01:44.140Z,13.9188
2023-05-09T05:02:52.183Z,14.0746
2023-05-09T05:04:00.269Z,14.1724
2023-05-09T05:05:12.112Z,14.0855
2023-05-09T05:06:21.098Z,14.1463
2023-05-09T05:07:29.153Z,14.1745
2023-05-09T05:08:37.193Z,14.2262
2023-05-09T05:09:45.436Z,14.1658
2023-05-09T05:10:53.516Z,14.0158
2023-05-09T05:12:03.222Z,14.0675
2023-05-09T05:13:14.455Z,14.1992
2023-05-09T05:14:22.500Z,14.2661
2023-05-09T05:15:30.622Z,14.2697
2023-05-09T05:16:38.634Z,14.1553
2023-05-09T05:17:46.794Z,14.1637
2023-05-09T05:18:54.802Z,14.1864
2023-05-09T05:20:02.653Z,14.2424
2023-05-09T05:21:10.865Z,14.3597
2023-05-09T05:22:18.793Z,14.3573
2023-05-09T05:23:27.146Z,14.3018
2023-05-09T05:24:34.990Z,14.1820
2023-05-09T05:25:43.163Z,14.1749
2023-05-09T05:26:51.143Z,14.2682
2023-05-09T05:27:59.209Z,14.2625
2023-05-09T05:29:07.270Z,14.2499
2023-05-09T05:30:15.333Z,14.3367
2023-05-09T05:31:23.436Z,14.4004
2023-05-09T05:32:31.498Z,14.4437
2023-05-09T05:33:39.498Z,14.4809
2023-05-09T05:34:47.426Z,14.4021
2023-05-09T05:35:55.528Z,14.4284
2023-05-09T05:37:03.589Z,14.5106
2023-05-09T05:38:11.730Z,14.6146
2023-05-09T05:39:19.912Z,14.5982
2023-05-09T05:40:27.847Z,14.5970
2023-05-09T05:41:35.963Z,14.5957
2023-05-09T05:42:43.952Z,14.6018
2023-05-09T05:43:54.114Z,14.6268
2023-05-09T05:45:04.926Z,14.4768
2023-05-09T05:46:13.233Z,14.3977
2023-05-09T05:47:20.894Z,14.4025
2023-05-09T05:48:28.975Z,14.4059
2023-05-09T05:49:37.028Z,14.4919
2023-05-09T05:50:45.279Z,14.6519
2023-05-09T05:51:53.285Z,14.7116
2023-05-09T05:53:01.408Z,14.6327
2023-05-09T05:54:09.551Z,14.5383
2023-05-09T05:55:17.610Z,14.3679
2023-05-09T05:56:25.580Z,14.3271
2023-05-09T05:57:33.651Z,14.5121
2023-05-09T05:58:41.684Z,14.7042
2023-05-09T05:59:49.695Z,14.6714
2023-05-09T06:00:57.786Z,14.5720
2023-05-09T06:02:05.783Z,14.4822
2023-05-09T06:03:13.867Z,14.3836
2023-05-09T06:04:22.110Z,14.4072
2023-05-09T06:05:29.986Z,14.6462
2023-05-09T06:06:38.123Z,14.8238
2023-05-09T06:07:46.140Z,14.9298
2023-05-09T06:08:54.236Z,15.0592
2023-05-09T06:10:02.427Z,15.1959
2023-05-09T06:11:10.281Z,15.2493
2023-05-09T06:12:18.413Z,15.2747
2023-05-09T06:13:26.589Z,15.3077
2023-05-09T06:14:34.487Z,15.4761
2023-05-09T06:15:42.559Z,15.5371
2023-05-09T06:16:50.551Z,15.6220
2023-05-09T06:17:58.657Z,15.6676
2023-05-09T06:19:06.636Z,15.6947
2023-05-09T06:20:15.006Z,15.6527
2023-05-09T06:21:22.862Z,15.6091
2023-05-09T06:22:30.968Z,15.4988
2023-05-09T06:23:42.638Z,15.5406
2023-05-09T06:24:51.953Z,15.4726
2023-05-09T06:26:00.108Z,15.2158
2023-05-09T06:27:07.963Z,15.2701
2023-05-09T06:28:16.138Z,15.4050
2023-05-09T06:29:24.185Z,15.4332
2023-05-09T06:30:32.055Z,15.4975
2023-05-09T06:31:40.187Z,15.5450
2023-05-09T06:32:48.239Z,15.5766
2023-05-09T06:33:56.368Z,15.6594
2023-05-09T06:35:04.402Z,15.7141
2023-05-09T06:36:12.564Z,15.7317
2023-05-09T06:37:20.559Z,15.5759
2023-05-09T06:38:28.652Z,15.5143
2023-05-09T06:39:36.712Z,15.5705
2023-05-09T06:40:44.762Z,15.6720
2023-05-09T06:41:52.787Z,15.6493
2023-05-09T06:43:00.962Z,15.6022
2023-05-09T06:44:08.960Z,15.6533
2023-05-09T06:45:17.314Z,15.6949
2023-05-09T06:46:24.903Z,15.6543
2023-05-09T06:47:33.000Z,15.5276
2023-05-09T06:48:41.151Z,15.4443
2023-05-09T06:49:49.255Z,15.3472
2023-05-09T06:50:57.275Z,15.1746
2023-05-09T06:52:05.325Z,15.1326
2023-05-09T06:53:13.528Z,15.0294
2023-05-09T06:54:21.492Z,14.9350
2023-05-09T06:55:29.585Z,15.0548
2023-05-09T06:56:37.641Z,15.2707
2023-05-09T06:57:45.657Z,15.4750
2023-05-09T06:58:53.860Z,15.6543
2023-05-09T07:00:01.694Z,15.7384
2023-05-09T07:01:09.765Z,15.7981
2023-05-09T07:02:17.783Z,15.8982
2023-05-09T07:03:26.209Z,15.8719
2023-05-09T07:04:34.111Z,15.9720
2023-05-09T07:05:42.138Z,16.1324
2023-05-09T07:06:50.174Z,16.2030
2023-05-09T07:07:58.231Z,16.2770
2023-05-09T07:09:06.422Z,16.3264
2023-05-09T07:10:14.375Z,16.3852
2023-05-09T07:11:22.402Z,16.3598
2023-05-09T07:12:30.556Z,16.4283
2023-05-09T07:13:38.708Z,16.2709
2023-05-09T07:14:46.432Z,16.2480
2023-05-09T07:15:54.541Z,16.1883
2023-05-09T07:17:18.251Z,16.0786
2023-05-09T07:18:15.603Z,15.9885
2023-05-09T07:19:23.678Z,15.9015
2023-05-09T07:20:31.832Z,15.9221
2023-05-09T07:21:39.753Z,15.7357
2023-05-09T07:22:47.854Z,15.6291
2023-05-09T07:23:55.933Z,15.6401
2023-05-09T07:25:03.913Z,15.7050
2023-05-09T07:26:12.035Z,15.8189
2023-05-09T07:27:20.068Z,15.7704
2023-05-09T07:28:28.048Z,15.7588
2023-05-09T07:29:36.107Z,15.7109
2023-05-09T07:30:44.115Z,15.7641
2023-05-09T07:31:52.349Z,15.7637
2023-05-09T07:33:00.503Z,15.9169
2023-05-09T07:34:08.372Z,16.1105
2023-05-09T07:35:16.751Z,16.2875
2023-05-09T07:36:24.502Z,16.4527
2023-05-09T07:37:32.600Z,16.4220
2023-05-09T07:38:40.640Z,16.4819
2023-05-09T07:39:48.801Z,16.6041
2023-05-09T07:40:56.791Z,16.6985
2023-05-09T07:42:04.875Z,16.7617
2023-05-09T07:43:12.774Z,16.8109
2023-05-09T07:44:20.850Z,16.8881
2023-05-09T07:45:28.900Z,16.7388
2023-05-09T07:46:37.076Z,16.5744
2023-05-09T07:47:45.131Z,16.5179
2023-05-09T07:48:53.347Z,16.5292
2023-05-09T07:50:01.210Z,16.5940
2023-05-09T07:51:09.301Z,16.6159
2023-05-09T07:52:17.312Z,16.7569
2023-05-09T07:53:25.543Z,16.9875
2023-05-09T07:54:33.422Z,17.1439
2023-05-09T07:55:41.755Z,17.3867
2023-05-09T07:56:49.598Z,17.6036
2023-05-09T07:57:57.601Z,17.7916
2023-05-09T07:59:05.520Z,17.9782
2023-05-09T08:00:13.628Z,18.1054
2023-05-09T08:01:21.639Z,18.0459
2023-05-09T08:02:29.906Z,18.1369
2023-05-09T08:03:38.053Z,18.1844
2023-05-09T08:04:46.153Z,18.1353
2023-05-09T08:05:54.086Z,17.9835
2023-05-09T08:07:02.190Z,18.0173
2023-05-09T08:08:10.156Z,18.1174
2023-05-09T08:09:18.209Z,18.0033
2023-05-09T08:10:26.264Z,18.1636
2023-05-09T08:11:34.616Z,17.9559
2023-05-09T08:12:42.480Z,18.0207
2023-05-09T08:13:50.504Z,18.2906
2023-05-09T08:14:58.383Z,18.5651
2023-05-09T08:16:06.556Z,18.7144
2023-05-09T08:17:14.555Z,18.7838
2023-05-09T08:18:22.621Z,18.7291
2023-05-09T08:19:30.706Z,18.8277
2023-05-09T08:20:38.875Z,18.7301
2023-05-09T08:21:46.806Z,18.7987
2023-05-09T08:22:54.907Z,18.6993
2023-05-09T08:24:02.930Z,18.6311
2023-05-09T08:25:10.991Z,18.6023
2023-05-09T08:26:19.064Z,18.5292
2023-05-09T08:27:27.131Z,18.5180
2023-05-09T08:28:35.285Z,18.4073
2023-05-09T08:29:43.189Z,18.2359
2023-05-09T08:30:51.204Z,18.1964
2023-05-09T08:31:59.416Z,18.1403
2023-05-09T08:33:07.502Z,18.0716
2023-05-09T08:34:15.463Z,18.0093
2023-05-09T08:35:23.539Z,17.7190
2023-05-09T08:36:31.743Z,17.5692
2023-05-09T08:37:39.776Z,17.4935
2023-05-09T08:38:47.748Z,17.3800
2023-05-09T08:39:55.987Z,17.3873
2023-05-09T08:41:03.866Z,17.5526
2023-05-09T08:42:11.916Z,17.6875
2023-05-09T08:43:19.988Z,17.5235
2023-05-09T08:44:27.911Z,17.4647
2023-05-09T08:45:35.955Z,17.6549
2023-05-09T08:46:44.050Z,17.6690
2023-05-09T08:47:52.235Z,17.6062
2023-05-09T08:49:00.343Z,17.6778
2023-05-09T08:50:08.320Z,17.8042
2023-05-09T08:51:16.365Z,17.8820
2023-05-09T08:52:24.617Z,18.0054
2023-05-09T08:53:32.641Z,17.9667
2023-05-09T08:54:40.521Z,18.0857
2023-05-09T08:55:48.591Z,17.9732
2023-05-09T08:56:56.716Z,18.1775
2023-05-09T08:58:05.315Z,18.1374
2023-05-09T08:59:12.646Z,18.1781
2023-05-09T09:00:21.155Z,18.2313
2023-05-09T09:01:28.812Z,18.2303
2023-05-09T09:02:36.997Z,18.3749
2023-05-09T09:03:45.130Z,18.5288
2023-05-09T09:04:53.105Z,18.5546
2023-05-09T09:06:01.132Z,18.5256
2023-05-09T09:07:09.220Z,18.4745
2023-05-09T09:08:17.412Z,18.3350
2023-05-09T09:09:25.363Z,18.2843
2023-05-09T09:10:33.350Z,18.3638
2023-05-09T09:11:41.451Z,18.3873
2023-05-09T09:12:50.235Z,18.3863
2023-05-09T09:13:57.487Z,18.4329
2023-05-09T09:15:05.451Z,18.4594
2023-05-09T09:16:13.537Z,18.4752
2023-05-09T09:17:21.661Z,18.3173
2023-05-09T09:18:29.742Z,18.3944
2023-05-09T09:19:37.767Z,18.4277
2023-05-09T09:20:45.800Z,18.4514
2023-05-09T09:21:53.894Z,18.5698
2023-05-09T09:23:01.934Z,18.8233
2023-05-09T09:24:10.030Z,18.8861
2023-05-09T09:25:18.155Z,19.0619
2023-05-09T09:26:26.190Z,19.2113
2023-05-09T09:27:34.154Z,19.3682
2023-05-09T09:28:42.133Z,19.5418
2023-05-09T09:29:50.231Z,19.5971
2023-05-09T09:30:58.241Z,19.6599
2023-05-09T09:32:06.546Z,19.6076
2023-05-09T09:33:14.545Z,19.6990
2023-05-09T09:34:22.684Z,19.9532
2023-05-09T09:35:30.776Z,19.8375
2023-05-09T09:36:38.678Z,19.6135
2023-05-09T09:37:46.750Z,19.8430
2023-05-09T09:38:54.791Z,19.9420
2023-05-09T09:40:02.865Z,19.8375
2023-05-09T09:41:10.967Z,19.8050
2023-05-09T09:42:19.089Z,19.7259
2023-05-09T09:43:26.938Z,19.5145
2023-05-09T09:44:34.960Z,19.6448
2023-05-09T09:45:43.203Z,19.8636
2023-05-09T09:46:51.296Z,19.9317
2023-05-09T09:47:59.269Z,20.1079
2023-05-09T09:49:07.280Z,20.2271
2023-05-09T09:50:15.908Z,20.3608
2023-05-09T09:51:23.455Z,20.5107
2023-05-09T09:52:31.504Z,20.5966
2023-05-09T09:53:39.540Z,20.4079
2023-05-09T09:54:47.676Z,20.4480
2023-05-09T09:55:55.745Z,20.7835
2023-05-09T09:57:03.698Z,21.0404
2023-05-09T09:58:11.664Z,21.1467
2023-05-09T09:59:19.770Z,21.4759
2023-05-09T10:00:27.780Z,21.9003
2023-05-09T10:01:35.990Z,22.2266
2023-05-09T10:02:44.083Z,22.8209
2023-05-09T10:03:52.109Z,23.3371
2023-05-09T10:05:00.173Z,23.7702
2023-05-09T10:06:08.387Z,24.2341
2023-05-09T10:07:16.408Z,24.5696
2023-05-09T10:08:24.387Z,25.0619
2023-05-09T10:09:32.445Z,25.8715
2023-05-09T10:10:40.469Z,26.5143
2023-05-09T10:11:48.534Z,26.8155
2023-05-09T10:12:56.600Z,26.6330
2023-05-09T10:14:04.555Z,26.7707
2023-05-09T10:15:12.612Z,26.9564
2023-05-09T10:16:25.903Z,27.2427
2023-05-09T10:17:33.859Z,27.3591
2023-05-09T10:18:42.020Z,27.0758
2023-05-09T10:19:49.805Z,26.4693
2023-05-09T10:20:57.847Z,26.4546
2023-05-09T10:22:06.321Z,26.8855
2023-05-09T10:23:14.133Z,27.1890
2023-05-09T10:24:22.097Z,27.2965
2023-05-09T10:25:30.276Z,27.2570
2023-05-09T10:26:38.066Z,26.9635
2023-05-09T10:27:46.185Z,26.7903
2023-05-09T10:28:54.187Z,26.7545
2023-05-09T10:30:02.377Z,26.6829
2023-05-09T10:31:10.476Z,26.3415
2023-05-09T10:32:18.491Z,26.2532
2023-05-09T10:33:26.632Z,25.9631
2023-05-09T10:34:34.639Z,25.4933
2023-05-09T10:35:42.653Z,25.3701
2023-05-09T10:36:50.721Z,25.4481
2023-05-09T10:37:58.848Z,25.4838
2023-05-09T10:39:07.370Z,25.5711
2023-05-09T10:40:14.798Z,25.8012
2023-05-09T10:41:22.889Z,25.9578
2023-05-09T10:42:30.929Z,25.9311
2023-05-09T10:43:39.092Z,25.6684
2023-05-09T10:44:47.112Z,25.3497
2023-05-09T10:45:55.226Z,25.2213
2023-05-09T10:47:03.433Z,25.0523
2023-05-09T10:48:11.321Z,24.9678
2023-05-09T10:49:19.451Z,25.0600
2023-05-09T10:50:27.441Z,25.0874
2023-05-09T10:51:35.515Z,25.1397
2023-05-09T10:52:43.557Z,25.0483
2023-05-09T10:53:51.647Z,24.9385
2023-05-09T10:54:59.599Z,25.1218
2023-05-09T10:56:07.647Z,25.4214
2023-05-09T10:57:15.667Z,25.5296
2023-05-09T10:58:23.888Z,25.7870
2023-05-09T10:59:31.981Z,25.5309
2023-05-09T11:00:40.002Z,25.3217
2023-05-09T11:01:48.343Z,25.0172
2023-05-09T11:02:56.175Z,24.8532
2023-05-09T11:04:04.249Z,24.8755
2023-05-09T11:05:12.389Z,25.0926
2023-05-09T11:06:20.260Z,25.1416
2023-05-09T11:07:28.463Z,24.8980
2023-05-09T11:08:36.406Z,24.5599
2023-05-09T11:09:44.328Z,24.2459
2023-05-09T11:10:52.507Z,24.3487
2023-05-09T11:12:00.482Z,24.0586
2023-05-09T11:13:08.676Z,23.7698
2023-05-09T11:14:16.746Z,23.6630
2023-05-09T11:15:24.642Z,23.2817
2023-05-09T11:16:32.933Z,23.2188
2023-05-09T11:17:40.867Z,22.9859
2023-05-09T11:18:49.125Z,22.8865
2023-05-09T11:19:56.969Z,23.0378
2023-05-09T11:21:05.048Z,22.7662
2023-05-09T11:22:13.112Z,22.5135
2023-05-09T11:23:21.160Z,22.4084
2023-05-09T11:24:29.125Z,22.5526
2023-05-09T11:25:37.152Z,22.7444
2023-05-09T11:26:45.287Z,22.7691
2023-05-09T11:27:53.386Z,22.7050
2023-05-09T11:29:01.551Z,22.7322
2023-05-09T11:30:09.505Z,22.8038
2023-05-09T11:31:17.588Z,22.6731
2023-05-09T11:32:25.625Z,22.5529
2023-05-09T11:33:33.694Z,22.4246
2023-05-09T11:34:41.960Z,22.6060
2023-05-09T11:35:49.775Z,22.5743
2023-05-09T11:36:57.847Z,22.3367
2023-05-09T11:38:05.943Z,22.4192
2023-05-09T11:39:13.906Z,22.7321
2023-05-09T11:40:21.991Z,22.9188
2023-05-09T11:41:29.988Z,22.6615
2023-05-09T11:42:38.246Z,22.6777
2023-05-09T11:43:46.238Z,23.0000
2023-05-09T11:44:54.337Z,23.2825
2023-05-09T11:46:02.403Z,23.4921
2023-05-09T11:47:10.513Z,23.3701
2023-05-09T11:48:18.463Z,23.4643
2023-05-09T11:49:26.618Z,23.3847
2023-05-09T11:50:34.652Z,23.6018
2023-05-09T11:51:42.775Z,23.5753
2023-05-09T11:52:50.733Z,23.8829
2023-05-09T11:53:58.644Z,24.3001
2023-05-09T11:55:06.752Z,24.4233
2023-05-09T11:56:14.743Z,24.5536
2023-05-09T11:57:22.938Z,24.6831
2023-05-09T11:58:31.202Z,24.6926
2023-05-09T11:59:39.118Z,24.6827
2023-05-09T12:00:47.113Z,24.3144
2023-05-09T12:01:55.178Z,23.9341
2023-05-09T12:03:03.353Z,23.7962
2023-05-09T12:04:11.267Z,23.7483
2023-05-09T12:05:19.410Z,23.6573
2023-05-09T12:06:27.416Z,23.6466
2023-05-09T12:07:35.481Z,23.3828
2023-05-09T12:08:43.421Z,23.2289
2023-05-09T12:09:51.511Z,23.5741
2023-05-09T12:10:59.513Z,23.5165
2023-05-09T12:12:07.775Z,23.4271
2023-05-09T12:13:15.939Z,23.3741
2023-05-09T12:14:24.022Z,23.2903
2023-05-09T12:15:31.932Z,23.2070
2023-05-09T12:16:40.285Z,23.3025
2023-05-09T12:17:50.550Z,23.3907
2023-05-09T12:19:00.984Z,23.7024
2023-05-09T12:20:09.106Z,23.6689
2023-05-09T12:21:17.188Z,23.6764
2023-05-09T12:22:25.060Z,23.5484
2023-05-09T12:23:33.145Z,23.4576
2023-05-09T12:24:41.245Z,23.5123
2023-05-09T12:25:49.384Z,23.3756
2023-05-09T12:26:57.449Z,23.5450
2023-05-09T12:28:05.454Z,23.4599
2023-05-09T12:29:13.614Z,23.3617
2023-05-09T12:30:21.728Z,23.1477
2023-05-09T12:31:29.681Z,23.0220
2023-05-09T12:32:37.929Z,23.0485
2023-05-09T12:33:45.800Z,22.9464
2023-05-09T12:34:53.858Z,23.0342
2023-05-09T12:36:01.930Z,23.0344
2023-05-09T12:37:09.851Z,22.9708
2023-05-09T12:38:17.925Z,23.0998
2023-05-09T12:39:25.963Z,23.1662
2023-05-09T12:40:34.232Z,23.3170
2023-05-09T12:41:53.589Z,23.1919
2023-05-09T12:42:55.157Z,23.2122
2023-05-09T12:44:03.222Z,23.1875
2023-05-09T12:45:11.315Z,23.1885
2023-05-09T12:46:19.501Z,23.2123
2023-05-09T12:47:27.612Z,23.2953
2023-05-09T12:48:35.445Z,23.3723
2023-05-09T12:49:43.539Z,23.2489
2023-05-09T12:50:51.492Z,23.2858
2023-05-09T12:51:59.842Z,23.4807
2023-05-09T12:53:07.610Z,23.8530
2023-05-09T12:54:15.756Z,23.9348
2023-05-09T12:55:23.891Z,24.0252
2023-05-09T12:56:31.889Z,24.1231
2023-05-09T12:57:39.974Z,24.0863
2023-05-09T12:58:48.068Z,24.3974
2023-05-09T12:59:56.037Z,24.6877
2023-05-09T13:01:04.267Z,24.5753
2023-05-09T13:02:12.293Z,24.6739
2023-05-09T13:03:20.279Z,24.8059
2023-05-09T13:04:28.414Z,24.8242
2023-05-09T13:05:36.259Z,24.8942
2023-05-09T13:06:44.318Z,25.0830
2023-05-09T13:07:52.396Z,25.1424
2023-05-09T13:09:00.515Z,25.2440
2023-05-09T13:10:10.176Z,25.1427
2023-05-09T13:11:21.517Z,25.3096
2023-05-09T13:12:29.544Z,25.3724
2023-05-09T13:13:37.677Z,25.4203
2023-05-09T13:14:45.947Z,25.6795
2023-05-09T13:15:53.777Z,26.0608
2023-05-09T13:17:01.886Z,26.1096
2023-05-09T13:18:10.082Z,25.6913
2023-05-09T13:19:17.891Z,25.6278
2023-05-09T13:20:25.981Z,25.5641
2023-05-09T13:21:33.990Z,25.1086
2023-05-09T13:22:42.210Z,24.6995
2023-05-09T13:23:50.307Z,24.4263
2023-05-09T13:24:58.336Z,24.6779
2023-05-09T13:26:06.598Z,24.9173
2023-05-09T13:27:14.418Z,25.1029
2023-05-09T13:28:22.471Z,25.2372
2023-05-09T13:29:30.563Z,25.1630
2023-05-09T13:30:38.640Z,25.2478
2023-05-09T13:31:46.772Z,25.2253
2023-05-09T13:32:54.826Z,25.4226
2023-05-09T13:34:02.747Z,25.3697
2023-05-09T13:35:10.800Z,25.2602
2023-05-09T13:36:18.809Z,25.1929
2023-05-09T13:37:26.983Z,25.1633
2023-05-09T13:38:35.051Z,25.0754
2023-05-09T13:39:43.146Z,25.1788
2023-05-09T13:40:51.202Z,25.2862
2023-05-09T13:41:59.242Z,25.1723
2023-05-09T13:43:07.284Z,24.9499
2023-05-09T13:44:15.445Z,24.6005